createdAt,value
2018-07-23T00:01:03.607Z,5.15
2018-07-23T00:06:09.014Z,5.90
2018-07-23T00:11:13.654Z,6.25
2018-07-23T00:16:18.930Z,8.73
2018-07-23T00:21:23.641Z,8.08
2018-07-23T00:26:29.145Z,7.35
2018-07-23T00:31:33.743Z,8.30
2018-07-23T00:36:38.837Z,9.35
2018-07-23T00:41:43.555Z,8.45
2018-07-23T00:46:48.265Z,8.63
2018-07-23T00:51:52.787Z,7.97
2018-07-23T00:56:57.498Z,9.08
2018-07-23T01:02:02.096Z,10.65
2018-07-23T01:07:06.930Z,10.50
2018-07-23T01:12:11.972Z,10.85
2018-07-23T01:17:16.620Z,11.53
2018-07-23T01:22:21.657Z,14.38
2018-07-23T01:27:26.574Z,13.18
2018-07-23T01:32:31.804Z,11.75
2018-07-23T01:37:36.608Z,15.78
2018-07-23T01:42:41.289Z,14.73
2018-07-23T01:47:46.495Z,13.20
2018-07-23T01:52:51.240Z,14.53
2018-07-23T01:57:56.121Z,13.18
2018-07-23T02:03:01.171Z,15.30
2018-07-23T02:08:06.017Z,11.75
2018-07-23T02:13:10.568Z,11.90
2018-07-23T02:18:15.310Z,13.48
2018-07-23T02:23:20.090Z,14.47
2018-07-23T02:28:24.662Z,11.83
2018-07-23T02:33:29.484Z,13.00
2018-07-23T02:38:34.197Z,15.85
2018-07-23T02:43:38.959Z,14.53
2018-07-23T02:48:44.130Z,13.72
2018-07-23T02:53:48.988Z,20.05
2018-07-23T02:58:54.369Z,16.67
2018-07-23T03:03:59.154Z,13.72
2018-07-23T03:09:04.343Z,14.95
2018-07-23T03:14:09.235Z,14.00
2018-07-23T03:19:13.945Z,14.85
2018-07-23T03:24:19.141Z,13.50
2018-07-23T03:29:24.098Z,15.95
2018-07-23T03:34:28.779Z,13.13
2018-07-23T03:39:33.764Z,13.68
2018-07-23T03:44:38.549Z,11.97
2018-07-23T03:49:43.541Z,13.10
2018-07-23T03:54:48.457Z,11.63
2018-07-23T03:59:53.360Z,11.95
2018-07-23T04:04:57.972Z,10.95
2018-07-23T04:10:02.973Z,11.55
2018-07-23T04:15:08.094Z,13.62
2018-07-23T04:20:12.801Z,11.25
2018-07-23T04:25:17.604Z,11.48
2018-07-23T04:30:22.502Z,11.93
2018-07-23T04:35:27.873Z,15.10
2018-07-23T04:40:32.900Z,12.25
2018-07-23T04:45:37.545Z,16.93
2018-07-23T04:50:42.235Z,12.82
2018-07-23T04:55:47.035Z,15.18
2018-07-23T05:00:52.219Z,12.80
2018-07-23T05:05:56.910Z,11.85
2018-07-23T05:11:02.258Z,10.78
2018-07-23T05:16:06.980Z,11.05
2018-07-23T05:21:11.781Z,12.63
2018-07-23T05:26:16.543Z,9.35
2018-07-23T05:31:21.386Z,11.12
2018-07-23T05:36:26.182Z,15.08
2018-07-23T05:41:30.921Z,12.23
2018-07-23T05:46:35.560Z,12.18
2018-07-23T05:51:40.525Z,13.30
2018-07-23T05:56:45.360Z,14.25
2018-07-23T06:01:50.100Z,12.75
2018-07-23T06:06:55.063Z,14.10
2018-07-23T06:11:59.548Z,13.30
2018-07-23T06:17:04.435Z,13.40
2018-07-23T06:22:09.209Z,13.48
2018-07-23T06:27:13.868Z,13.90
2018-07-23T06:32:18.649Z,15.75
2018-07-23T06:37:23.375Z,14.13
2018-07-23T06:42:27.944Z,17.75
2018-07-23T06:47:32.665Z,13.93
2018-07-23T06:52:37.386Z,14.23
2018-07-23T06:57:42.465Z,13.10
2018-07-23T07:02:47.308Z,16.23
2018-07-23T07:07:51.780Z,14.30
2018-07-23T07:12:57.212Z,11.73
2018-07-23T07:18:02.542Z,10.72
2018-07-23T07:23:07.433Z,11.73
2018-07-23T07:28:12.015Z,11.08
2018-07-23T07:33:17.456Z,10.45
2018-07-23T07:38:22.091Z,10.35
2018-07-23T07:43:26.754Z,12.00
2018-07-23T07:48:31.548Z,15.80
2018-07-23T07:53:36.544Z,14.93
2018-07-23T07:58:41.281Z,12.75
2018-07-23T08:03:46.266Z,12.70
2018-07-23T08:08:50.824Z,13.40
2018-07-23T08:13:55.375Z,14.23
2018-07-23T08:19:00.584Z,13.10
2018-07-23T08:24:06.608Z,15.00
2018-07-23T08:29:26.949Z,17.75
2018-07-23T08:34:31.777Z,23.98
2018-07-23T08:39:36.657Z,26.00
2018-07-23T08:44:44.364Z,18.35
2018-07-23T08:49:49.644Z,23.15
2018-07-23T08:54:54.532Z,27.70
2018-07-23T08:59:59.179Z,18.32
2018-07-23T09:05:04.431Z,17.35
2018-07-23T09:10:09.975Z,16.10
2018-07-23T09:15:14.773Z,16.90
2018-07-23T09:20:19.362Z,17.62
2018-07-23T09:25:27.472Z,17.60
2018-07-23T09:30:37.338Z,19.77
2018-07-23T09:35:41.985Z,21.27
2018-07-23T09:40:46.830Z,21.12
2018-07-23T09:45:51.399Z,18.55
2018-07-23T09:50:56.876Z,22.77
2018-07-23T09:56:01.650Z,20.23
2018-07-23T10:01:12.598Z,19.50
2018-07-23T10:06:17.531Z,23.92
2018-07-23T10:11:22.981Z,20.02
2018-07-23T10:16:28.141Z,22.90
2018-07-23T10:21:32.857Z,20.30
2018-07-23T10:26:37.392Z,20.57
2018-07-23T10:31:42.127Z,21.27
2018-07-23T10:36:46.968Z,21.52
2018-07-23T10:41:52.512Z,16.85
2018-07-23T10:46:57.377Z,13.30
2018-07-23T10:52:02.115Z,11.40
2018-07-23T10:57:06.764Z,11.50
2018-07-23T11:02:11.534Z,12.60
2018-07-23T11:07:16.262Z,11.88
2018-07-23T11:12:20.872Z,12.82
2018-07-23T11:17:25.603Z,7.95
2018-07-23T11:22:30.454Z,10.03
2018-07-23T11:27:35.703Z,9.45
2018-07-23T11:32:40.177Z,9.08
2018-07-23T11:37:44.850Z,8.80
2018-07-23T11:42:49.840Z,10.50
2018-07-23T11:47:54.309Z,9.05
2018-07-23T11:52:58.495Z,6.60
2018-07-23T11:58:03.208Z,7.78
2018-07-23T12:03:08.044Z,7.87
2018-07-23T12:08:12.776Z,7.87
2018-07-23T12:13:17.448Z,5.50
2018-07-23T12:18:22.056Z,6.28
2018-07-23T12:23:26.651Z,5.50
2018-07-23T12:28:31.409Z,5.37
2018-07-23T12:33:36.140Z,6.12
2018-07-23T12:38:41.513Z,5.58
2018-07-23T12:43:46.231Z,6.70
2018-07-23T12:48:50.858Z,5.78
2018-07-23T12:53:55.585Z,6.20
2018-07-23T12:59:00.356Z,6.37
2018-07-23T13:04:05.013Z,7.05
2018-07-23T13:09:12.062Z,9.48
2018-07-23T13:14:16.833Z,7.05
2018-07-23T13:19:21.661Z,8.15
2018-07-23T13:24:26.229Z,7.05
2018-07-23T13:29:30.788Z,7.22
2018-07-23T13:34:35.444Z,6.00
2018-07-23T13:39:40.185Z,8.63
2018-07-23T13:44:45.429Z,6.03
2018-07-23T13:49:51.093Z,7.20
2018-07-23T13:54:56.065Z,6.08
2018-07-23T14:00:01.070Z,8.13
2018-07-23T14:05:05.855Z,5.72
2018-07-23T14:10:10.567Z,6.15
2018-07-23T14:15:15.314Z,7.92
2018-07-23T14:20:20.350Z,7.10
2018-07-23T14:25:25.091Z,5.87
2018-07-23T14:30:29.912Z,5.67
2018-07-23T14:35:34.719Z,6.97
2018-07-23T14:40:39.488Z,6.60
2018-07-23T14:45:44.408Z,9.23
2018-07-23T14:50:49.865Z,6.37
2018-07-23T14:55:54.817Z,7.28
2018-07-23T15:00:59.521Z,5.72
2018-07-23T15:06:04.372Z,7.47
2018-07-23T15:11:09.277Z,7.85
2018-07-23T15:16:13.962Z,7.70
2018-07-23T15:21:18.992Z,7.75
2018-07-23T15:26:23.888Z,7.62
2018-07-23T15:31:28.764Z,8.95
2018-07-23T15:36:33.740Z,7.12
2018-07-23T15:41:38.570Z,7.87
2018-07-23T15:46:43.399Z,7.70
2018-07-23T15:51:48.125Z,6.30
2018-07-23T15:56:52.860Z,6.80
2018-07-23T16:01:57.879Z,6.65
2018-07-23T16:07:02.743Z,7.40
2018-07-23T16:12:07.570Z,8.40
2018-07-23T16:17:12.274Z,10.48
2018-07-23T16:22:16.982Z,7.47
2018-07-23T16:27:21.656Z,7.87
2018-07-23T16:32:26.836Z,8.10
2018-07-23T16:37:32.168Z,6.62
2018-07-23T16:42:36.938Z,8.08
2018-07-23T16:47:42.508Z,8.08
2018-07-23T16:52:47.058Z,8.80
2018-07-23T16:57:51.819Z,7.55
2018-07-23T17:02:56.578Z,7.28
2018-07-23T17:08:01.271Z,8.33
2018-07-23T17:13:05.861Z,9.20
2018-07-23T17:18:10.746Z,8.33
2018-07-23T17:23:15.479Z,7.47
2018-07-23T17:28:20.151Z,10.38
2018-07-23T17:33:24.771Z,9.08
2018-07-23T17:38:29.715Z,9.53
2018-07-23T17:43:34.468Z,7.87
2018-07-23T17:48:39.283Z,8.03
2018-07-23T17:53:44.050Z,9.08
2018-07-23T17:58:49.588Z,8.75
2018-07-23T18:03:54.440Z,9.38
2018-07-23T18:08:59.281Z,7.72
2018-07-23T18:14:04.227Z,10.38
2018-07-23T18:19:08.861Z,8.70
2018-07-23T18:24:13.677Z,7.62
2018-07-23T18:29:18.319Z,8.85
2018-07-23T18:34:22.942Z,7.92
2018-07-23T18:39:27.503Z,9.18
2018-07-23T18:44:32.435Z,9.53
2018-07-23T18:49:48.976Z,10.93
2018-07-23T18:54:55.995Z,8.20
2018-07-23T19:00:01.406Z,9.45
2018-07-23T19:05:06.815Z,10.10
2018-07-23T19:10:11.514Z,10.38
2018-07-23T19:15:16.184Z,8.60
2018-07-23T19:20:21.134Z,9.83
2018-07-23T19:25:26.700Z,9.95
2018-07-23T19:30:32.408Z,9.08
2018-07-23T19:35:37.003Z,11.00
2018-07-23T19:40:41.684Z,10.98
2018-07-23T19:45:46.260Z,9.20
2018-07-23T19:50:51.314Z,9.63
2018-07-23T19:55:56.145Z,10.72
2018-07-23T20:01:00.990Z,10.75
2018-07-23T20:06:05.719Z,12.35
2018-07-23T20:11:11.221Z,10.75
2018-07-23T20:16:16.102Z,10.23
2018-07-23T20:21:20.941Z,10.13
2018-07-23T20:26:25.691Z,11.70
2018-07-23T20:31:30.280Z,11.38
2018-07-23T20:36:35.446Z,12.93
2018-07-23T20:41:40.241Z,10.95
2018-07-23T20:46:45.362Z,12.30
2018-07-23T20:51:50.437Z,11.22
2018-07-23T20:56:55.212Z,14.38
2018-07-23T21:01:59.844Z,12.37
2018-07-23T21:07:04.829Z,13.25
2018-07-23T21:12:09.807Z,14.25
2018-07-23T21:17:14.592Z,13.20
2018-07-23T21:22:19.441Z,14.87
2018-07-23T21:27:24.104Z,13.98
2018-07-23T21:32:28.929Z,12.75
2018-07-23T21:37:34.532Z,12.40
2018-07-23T21:42:39.288Z,12.68
2018-07-23T21:47:44.377Z,14.35
2018-07-23T21:52:49.708Z,13.48
2018-07-23T21:57:55.097Z,14.65
2018-07-23T22:03:00.493Z,14.93
2018-07-23T22:08:05.606Z,14.58
2018-07-23T22:13:10.592Z,13.78
2018-07-23T22:18:15.317Z,15.08
2018-07-23T22:23:19.944Z,13.22
2018-07-23T22:28:25.897Z,15.00
2018-07-23T22:33:31.243Z,14.07
2018-07-23T22:38:35.941Z,14.90
2018-07-23T22:43:40.741Z,15.58
2018-07-23T22:48:45.562Z,15.95
2018-07-23T22:53:50.294Z,14.95
2018-07-23T22:58:55.886Z,14.98
2018-07-23T23:04:00.933Z,16.80
2018-07-23T23:09:07.851Z,14.85
2018-07-23T23:14:12.517Z,15.78
2018-07-23T23:19:17.376Z,16.10
2018-07-23T23:24:22.218Z,16.10
2018-07-23T23:29:26.876Z,14.47
2018-07-23T23:34:31.684Z,14.90
2018-07-23T23:39:36.323Z,15.43
2018-07-23T23:44:41.164Z,16.25
2018-07-23T23:49:46.112Z,15.63
2018-07-23T23:54:50.829Z,16.65
2018-07-23T23:59:55.489Z,16.37
